Matsudo, Japan
Current Conditions -  °F | °C
As of 3:00 AM on Tuesday 25 Nov 2014 (Local Time) from RJTT Reporting Station
Broken Clouds Broken Clouds  
Wind Chill: 52°   Ceiling: Unl
Heat Index: 52°   Visibility: 6mi
Dew Point: 46°   Wind: 3mph
Humidity: 82%   Direction: 290°WNW
Pressure: 29.94"   Gusts: NA
Location:  35.78°N, 139.9°E
Report Text: RJTT 241800Z 29003KT 9999 FEW015 BKN/// 11/08 Q1014 NOSIG RMK 1CU015 A2996
Loading
Personal Weather Stations






























Interactive Weather Map New forecast layout! Learn more

10-Day Weather Forecast

Advertisements
Track Severe Weather on mobile